Burrton, Kansas
Current Conditions -  °F | °C
As of 8:52 PM on Sunday 23 Nov 2014 (Local Time) from KHUT Reporting Station
Clear Clear  
Wind Chill: 36°   Ceiling: Unl
Heat Index: 43°   Visibility: 10mi
Dew Point: 30°   Wind: 14mph
Humidity: 60%   Direction: 330°NNW
Pressure: 29.65"   Gusts: NA
Location:  38.02°N, 97.67°W
Report Text: KHUT 240252Z 33012KT 10SM CLR 06/M01 A2965 RMK AO2 SLP035 T00611011 51019
Loading
Personal Weather Stations






























Interactive Weather Map New forecast layout! Learn more

10-Day Weather Forecast

Advertisements
Track Severe Weather on mobile